sensor_id;sensor_type;location;lat;lon;timestamp;P1;durP1;ratioP1;P2;durP2;ratioP2
27746;SDS011;15138;51.012;4.692;2022-09-21T00:01:11;6.90;;;4.40;;
27746;SDS011;15138;51.012;4.692;2022-09-21T00:03:41;6.20;;;4.20;;
27746;SDS011;15138;51.012;4.692;2022-09-21T00:06:10;7.30;;;4.50;;
27746;SDS011;15138;51.012;4.692;2022-09-21T00:08:40;8.20;;;4.22;;
27746;SDS011;15138;51.012;4.692;2022-09-21T00:11:10;21.95;;;5.28;;
27746;SDS011;15138;51.012;4.692;2022-09-21T00:13:40;6.22;;;4.82;;
27746;SDS011;15138;51.012;4.692;2022-09-21T00:16:14;9.23;;;4.63;;
27746;SDS011;15138;51.012;4.692;2022-09-21T00:18:43;9.40;;;4.45;;
27746;SDS011;15138;51.012;4.692;2022-09-21T00:21:12;6.20;;;4.40;;
27746;SDS011;15138;51.012;4.692;2022-09-21T00:23:41;6.47;;;4.40;;
27746;SDS011;15138;51.012;4.692;2022-09-21T00:26:11;9.98;;;4.40;;
27746;SDS011;15138;51.012;4.692;2022-09-21T00:28:42;8.27;;;5.00;;
27746;SDS011;15138;51.012;4.692;2022-09-21T00:31:12;11.50;;;5.20;;
27746;SDS011;15138;51.012;4.692;2022-09-21T00:33:43;7.43;;;4.82;;
27746;SDS011;15138;51.012;4.692;2022-09-21T00:36:12;7.03;;;4.78;;
27746;SDS011;15138;51.012;4.692;2022-09-21T00:38:42;5.70;;;4.35;;
27746;SDS011;15138;51.012;4.692;2022-09-21T00:41:11;11.38;;;5.22;;
27746;SDS011;15138;51.012;4.692;2022-09-21T00:43:41;7.82;;;5.57;;
27746;SDS011;15138;51.012;4.692;2022-09-21T00:46:13;9.07;;;4.43;;
27746;SDS011;15138;51.012;4.692;2022-09-21T00:48:49;8.40;;;4.80;;
27746;SDS011;15138;51.012;4.692;2022-09-21T00:51:17;6.75;;;4.40;;
27746;SDS011;15138;51.012;4.692;2022-09-21T00:53:46;5.75;;;3.90;;
27746;SDS011;15138;51.012;4.692;2022-09-21T00:56:18;6.03;;;4.25;;
27746;SDS011;15138;51.012;4.692;2022-09-21T00:58:47;5.75;;;3.70;;
27746;SDS011;15138;51.012;4.692;2022-09-21T01:01:19;7.53;;;3.40;;
27746;SDS011;15138;51.012;4.692;2022-09-21T01:03:47;5.45;;;3.70;;
27746;SDS011;15138;51.012;4.692;2022-09-21T01:06:18;8.40;;;3.83;;
27746;SDS011;15138;51.012;4.692;2022-09-21T01:08:48;4.20;;;3.30;;
27746;SDS011;15138;51.012;4.692;2022-09-21T01:11:23;7.20;;;3.45;;
27746;SDS011;15138;51.012;4.692;2022-09-21T01:17:01;6.55;;;4.00;;
27746;SDS011;15138;51.012;4.692;2022-09-21T01:19:44;5.40;;;3.97;;
27746;SDS011;15138;51.012;4.692;2022-09-21T01:22:47;5.53;;;3.50;;
27746;SDS011;15138;51.012;4.692;2022-09-21T01:25:29;5.65;;;3.28;;
27746;SDS011;15138;51.012;4.692;2022-09-21T01:28:07;4.35;;;2.92;;
27746;SDS011;15138;51.012;4.692;2022-09-21T01:30:47;3.92;;;3.13;;
27746;SDS011;15138;51.012;4.692;2022-09-21T01:33:20;3.58;;;2.83;;
27746;SDS011;15138;51.012;4.692;2022-09-21T01:35:55;8.02;;;4.00;;
27746;SDS011;15138;51.012;4.692;2022-09-21T01:38:27;6.30;;;3.58;;
27746;SDS011;15138;51.012;4.692;2022-09-21T01:41:02;4.75;;;3.25;;
27746;SDS011;15138;51.012;4.692;2022-09-21T01:43:34;8.25;;;4.35;;
27746;SDS011;15138;51.012;4.692;2022-09-21T01:46:08;6.88;;;3.65;;
27746;SDS011;15138;51.012;4.692;2022-09-21T01:48:41;6.78;;;3.70;;
27746;SDS011;15138;51.012;4.692;2022-09-21T01:51:13;6.32;;;3.70;;
27746;SDS011;15138;51.012;4.692;2022-09-21T01:53:44;4.28;;;3.25;;
27746;SDS011;15138;51.012;4.692;2022-09-21T01:56:19;8.75;;;3.60;;
27746;SDS011;15138;51.012;4.692;2022-09-21T01:58:53;4.20;;;3.08;;
27746;SDS011;15138;51.012;4.692;2022-09-21T02:01:33;8.15;;;3.80;;
27746;SDS011;15138;51.012;4.692;2022-09-21T02:04:07;6.20;;;3.45;;
27746;SDS011;15138;51.012;4.692;2022-09-21T02:06:37;5.68;;;3.60;;
27746;SDS011;15138;51.012;4.692;2022-09-21T02:09:09;4.15;;;3.30;;
27746;SDS011;15138;51.012;4.692;2022-09-21T02:11:38;6.10;;;3.72;;
27746;SDS011;15138;51.012;4.692;2022-09-21T02:14:08;5.55;;;3.70;;
27746;SDS011;15138;51.012;4.692;2022-09-21T02:16:40;5.13;;;4.00;;
27746;SDS011;15138;51.012;4.692;2022-09-21T02:19:17;8.38;;;3.92;;
27746;SDS011;15138;51.012;4.692;2022-09-21T02:21:54;12.35;;;4.60;;
27746;SDS011;15138;51.012;4.692;2022-09-21T02:24:32;5.90;;;3.70;;
27746;SDS011;15138;51.012;4.692;2022-09-21T02:27:08;5.00;;;3.65;;
27746;SDS011;15138;51.012;4.692;2022-09-21T02:29:46;7.60;;;3.83;;
27746;SDS011;15138;51.012;4.692;2022-09-21T02:32:23;5.65;;;3.60;;
27746;SDS011;15138;51.012;4.692;2022-09-21T02:35:04;12.48;;;4.88;;
27746;SDS011;15138;51.012;4.692;2022-09-21T02:37:39;5.40;;;3.85;;
27746;SDS011;15138;51.012;4.692;2022-09-21T02:40:15;5.33;;;3.97;;
27746;SDS011;15138;51.012;4.692;2022-09-21T02:42:51;7.90;;;3.90;;
27746;SDS011;15138;51.012;4.692;2022-09-21T02:45:23;7.22;;;3.65;;
27746;SDS011;15138;51.012;4.692;2022-09-21T02:47:57;8.00;;;4.57;;
27746;SDS011;15138;51.012;4.692;2022-09-21T02:50:29;6.68;;;4.40;;
27746;SDS011;15138;51.012;4.692;2022-09-21T02:53:00;12.38;;;4.22;;
27746;SDS011;15138;51.012;4.692;2022-09-21T02:55:31;11.95;;;5.60;;
27746;SDS011;15138;51.012;4.692;2022-09-21T02:58:00;9.30;;;4.40;;
27746;SDS011;15138;51.012;4.692;2022-09-21T03:00:32;9.00;;;4.40;;
27746;SDS011;15138;51.012;4.692;2022-09-21T03:03:04;8.65;;;4.53;;
27746;SDS011;15138;51.012;4.692;2022-09-21T03:05:42;5.07;;;3.83;;
27746;SDS011;15138;51.012;4.692;2022-09-21T03:08:13;5.15;;;3.75;;
27746;SDS011;15138;51.012;4.692;2022-09-21T03:10:41;6.38;;;3.75;;
27746;SDS011;15138;51.012;4.692;2022-09-21T03:13:09;8.43;;;3.95;;
27746;SDS011;15138;51.012;4.692;2022-09-21T03:15:38;4.18;;;3.67;;
27746;SDS011;15138;51.012;4.692;2022-09-21T03:18:08;8.07;;;4.00;;
27746;SDS011;15138;51.012;4.692;2022-09-21T03:20:36;5.35;;;3.70;;
27746;SDS011;15138;51.012;4.692;2022-09-21T03:23:05;7.75;;;4.47;;
27746;SDS011;15138;51.012;4.692;2022-09-21T03:25:34;14.77;;;4.78;;
27746;SDS011;15138;51.012;4.692;2022-09-21T03:28:02;11.38;;;4.60;;
27746;SDS011;15138;51.012;4.692;2022-09-21T03:30:30;6.82;;;3.80;;
27746;SDS011;15138;51.012;4.692;2022-09-21T03:32:58;7.20;;;4.00;;
27746;SDS011;15138;51.012;4.692;2022-09-21T03:35:27;8.02;;;3.83;;
27746;SDS011;15138;51.012;4.692;2022-09-21T03:37:55;10.40;;;4.20;;
27746;SDS011;15138;51.012;4.692;2022-09-21T03:40:24;7.35;;;4.25;;
27746;SDS011;15138;51.012;4.692;2022-09-21T03:42:53;12.25;;;3.65;;
27746;SDS011;15138;51.012;4.692;2022-09-21T03:45:21;5.47;;;3.70;;
27746;SDS011;15138;51.012;4.692;2022-09-21T03:47:50;8.15;;;3.90;;
27746;SDS011;15138;51.012;4.692;2022-09-21T03:50:21;11.38;;;4.22;;
27746;SDS011;15138;51.012;4.692;2022-09-21T03:52:51;8.93;;;4.63;;
27746;SDS011;15138;51.012;4.692;2022-09-21T03:55:20;10.85;;;4.18;;
27746;SDS011;15138;51.012;4.692;2022-09-21T03:57:48;7.57;;;3.88;;
27746;SDS011;15138;51.012;4.692;2022-09-21T04:00:16;5.07;;;3.58;;
27746;SDS011;15138;51.012;4.692;2022-09-21T04:02:45;12.90;;;3.72;;
27746;SDS011;15138;51.012;4.692;2022-09-21T04:05:13;5.22;;;3.10;;
27746;SDS011;15138;51.012;4.692;2022-09-21T04:07:42;5.30;;;3.70;;
27746;SDS011;15138;51.012;4.692;2022-09-21T04:10:14;8.65;;;3.97;;
27746;SDS011;15138;51.012;4.692;2022-09-21T04:12:43;12.30;;;4.63;;
27746;SDS011;15138;51.012;4.692;2022-09-21T04:15:13;37.47;;;5.78;;
27746;SDS011;15138;51.012;4.692;2022-09-21T04:17:44;10.57;;;5.30;;
27746;SDS011;15138;51.012;4.692;2022-09-21T04:20:13;11.43;;;4.72;;
27746;SDS011;15138;51.012;4.692;2022-09-21T04:22:41;11.25;;;5.03;;
27746;SDS011;15138;51.012;4.692;2022-09-21T04:25:10;9.88;;;5.03;;
27746;SDS011;15138;51.012;4.692;2022-09-21T04:27:39;28.23;;;6.00;;
27746;SDS011;15138;51.012;4.692;2022-09-21T04:30:09;23.85;;;5.97;;
27746;SDS011;15138;51.012;4.692;2022-09-21T04:32:38;16.33;;;5.85;;
27746;SDS011;15138;51.012;4.692;2022-09-21T04:35:07;19.13;;;5.95;;
27746;SDS011;15138;51.012;4.692;2022-09-21T04:37:35;11.55;;;5.45;;
27746;SDS011;15138;51.012;4.692;2022-09-21T04:40:04;10.20;;;5.20;;
27746;SDS011;15138;51.012;4.692;2022-09-21T04:42:33;7.95;;;5.03;;
27746;SDS011;15138;51.012;4.692;2022-09-21T04:45:03;11.82;;;5.80;;
27746;SDS011;15138;51.012;4.692;2022-09-21T04:47:32;9.25;;;5.28;;
27746;SDS011;15138;51.012;4.692;2022-09-21T04:50:00;8.93;;;5.45;;
27746;SDS011;15138;51.012;4.692;2022-09-21T04:52:28;14.95;;;5.82;;
27746;SDS011;15138;51.012;4.692;2022-09-21T04:54:56;9.68;;;5.50;;
27746;SDS011;15138;51.012;4.692;2022-09-21T04:57:24;7.60;;;5.07;;
27746;SDS011;15138;51.012;4.692;2022-09-21T04:59:52;11.07;;;5.28;;
27746;SDS011;15138;51.012;4.692;2022-09-21T05:02:21;12.70;;;5.53;;
27746;SDS011;15138;51.012;4.692;2022-09-21T05:04:49;12.50;;;6.75;;
27746;SDS011;15138;51.012;4.692;2022-09-21T05:07:17;9.68;;;5.80;;
27746;SDS011;15138;51.012;4.692;2022-09-21T05:09:45;12.60;;;5.82;;
27746;SDS011;15138;51.012;4.692;2022-09-21T05:12:28;8.88;;;5.50;;
27746;SDS011;15138;51.012;4.692;2022-09-21T05:14:56;10.07;;;5.78;;
27746;SDS011;15138;51.012;4.692;2022-09-21T05:17:26;11.52;;;6.15;;
27746;SDS011;15138;51.012;4.692;2022-09-21T05:19:54;10.05;;;5.65;;
27746;SDS011;15138;51.012;4.692;2022-09-21T05:22:22;8.95;;;5.57;;
27746;SDS011;15138;51.012;4.692;2022-09-21T05:24:50;15.65;;;5.72;;
27746;SDS011;15138;51.012;4.692;2022-09-21T05:27:18;13.48;;;5.35;;
27746;SDS011;15138;51.012;4.692;2022-09-21T05:29:46;8.48;;;5.85;;
27746;SDS011;15138;51.012;4.692;2022-09-21T05:32:16;13.00;;;6.30;;
27746;SDS011;15138;51.012;4.692;2022-09-21T05:34:57;13.77;;;6.32;;
27746;SDS011;15138;51.012;4.692;2022-09-21T05:37:39;13.13;;;5.55;;
27746;SDS011;15138;51.012;4.692;2022-09-21T05:40:18;133.02;;;8.13;;
27746;SDS011;15138;51.012;4.692;2022-09-21T05:42:47;7.53;;;5.40;;
27746;SDS011;15138;51.012;4.692;2022-09-21T05:45:16;7.57;;;4.95;;
27746;SDS011;15138;51.012;4.692;2022-09-21T05:47:54;31.15;;;6.00;;
27746;SDS011;15138;51.012;4.692;2022-09-21T05:50:31;107.80;;;7.05;;
27746;SDS011;15138;51.012;4.692;2022-09-21T05:53:10;50.40;;;5.80;;
27746;SDS011;15138;51.012;4.692;2022-09-21T05:55:55;27.85;;;5.57;;
27746;SDS011;15138;51.012;4.692;2022-09-21T05:58:27;38.20;;;6.25;;
27746;SDS011;15138;51.012;4.692;2022-09-21T06:01:07;22.83;;;5.35;;
27746;SDS011;15138;51.012;4.692;2022-09-21T06:03:50;15.48;;;5.38;;
27746;SDS011;15138;51.012;4.692;2022-09-21T06:06:21;33.88;;;5.47;;
27746;SDS011;15138;51.012;4.692;2022-09-21T06:08:49;13.70;;;5.20;;
27746;SDS011;15138;51.012;4.692;2022-09-21T06:11:17;25.83;;;5.53;;
27746;SDS011;15138;51.012;4.692;2022-09-21T06:13:45;27.05;;;6.05;;
27746;SDS011;15138;51.012;4.692;2022-09-21T06:16:13;33.05;;;6.50;;
27746;SDS011;15138;51.012;4.692;2022-09-21T06:18:41;33.67;;;5.75;;
27746;SDS011;15138;51.012;4.692;2022-09-21T06:21:09;43.22;;;6.28;;
27746;SDS011;15138;51.012;4.692;2022-09-21T06:23:39;25.77;;;5.57;;
27746;SDS011;15138;51.012;4.692;2022-09-21T06:26:07;24.80;;;6.00;;
27746;SDS011;15138;51.012;4.692;2022-09-21T06:28:35;21.45;;;5.32;;
27746;SDS011;15138;51.012;4.692;2022-09-21T06:31:03;8.07;;;4.97;;
27746;SDS011;15138;51.012;4.692;2022-09-21T06:33:31;28.33;;;6.05;;
27746;SDS011;15138;51.012;4.692;2022-09-21T06:36:01;33.97;;;5.75;;
27746;SDS011;15138;51.012;4.692;2022-09-21T06:38:29;21.25;;;5.10;;
27746;SDS011;15138;51.012;4.692;2022-09-21T06:41:01;28.85;;;5.60;;
27746;SDS011;15138;51.012;4.692;2022-09-21T06:43:30;26.35;;;4.97;;
27746;SDS011;15138;51.012;4.692;2022-09-21T06:45:59;10.48;;;4.50;;
27746;SDS011;15138;51.012;4.692;2022-09-21T06:48:28;9.35;;;4.60;;
27746;SDS011;15138;51.012;4.692;2022-09-21T06:50:58;26.35;;;5.47;;
27746;SDS011;15138;51.012;4.692;2022-09-21T06:53:27;17.38;;;4.80;;
27746;SDS011;15138;51.012;4.692;2022-09-21T06:56:00;29.77;;;5.68;;
27746;SDS011;15138;51.012;4.692;2022-09-21T06:58:29;20.02;;;5.32;;
27746;SDS011;15138;51.012;4.692;2022-09-21T07:01:02;18.60;;;5.70;;
27746;SDS011;15138;51.012;4.692;2022-09-21T07:03:32;22.63;;;5.30;;
27746;SDS011;15138;51.012;4.692;2022-09-21T07:06:01;14.35;;;5.70;;
27746;SDS011;15138;51.012;4.692;2022-09-21T07:08:30;11.55;;;5.45;;
27746;SDS011;15138;51.012;4.692;2022-09-21T07:11:19;10.50;;;5.90;;
27746;SDS011;15138;51.012;4.692;2022-09-21T07:13:48;10.10;;;5.90;;
27746;SDS011;15138;51.012;4.692;2022-09-21T07:16:18;12.80;;;6.20;;
27746;SDS011;15138;51.012;4.692;2022-09-21T07:18:46;8.57;;;6.32;;
27746;SDS011;15138;51.012;4.692;2022-09-21T07:21:15;9.55;;;6.68;;
27746;SDS011;15138;51.012;4.692;2022-09-21T07:23:43;9.95;;;6.70;;
27746;SDS011;15138;51.012;4.692;2022-09-21T07:26:11;13.02;;;7.15;;
27746;SDS011;15138;51.012;4.692;2022-09-21T07:28:41;11.13;;;7.47;;
27746;SDS011;15138;51.012;4.692;2022-09-21T07:31:11;11.10;;;7.57;;
27746;SDS011;15138;51.012;4.692;2022-09-21T07:33:40;11.27;;;8.10;;
27746;SDS011;15138;51.012;4.692;2022-09-21T07:36:09;13.25;;;7.90;;
27746;SDS011;15138;51.012;4.692;2022-09-21T07:38:39;11.82;;;8.52;;
27746;SDS011;15138;51.012;4.692;2022-09-21T07:41:08;16.02;;;8.73;;
27746;SDS011;15138;51.012;4.692;2022-09-21T07:43:38;11.60;;;8.38;;
27746;SDS011;15138;51.012;4.692;2022-09-21T07:46:08;12.43;;;8.52;;
27746;SDS011;15138;51.012;4.692;2022-09-21T07:48:38;15.95;;;9.70;;
27746;SDS011;15138;51.012;4.692;2022-09-21T07:51:07;13.02;;;8.45;;
27746;SDS011;15138;51.012;4.692;2022-09-21T07:53:37;15.40;;;9.68;;
27746;SDS011;15138;51.012;4.692;2022-09-21T07:56:07;14.38;;;9.80;;
27746;SDS011;15138;51.012;4.692;2022-09-21T07:58:37;21.30;;;12.45;;
27746;SDS011;15138;51.012;4.692;2022-09-21T08:01:24;20.13;;;13.63;;
27746;SDS011;15138;51.012;4.692;2022-09-21T08:03:54;36.33;;;26.88;;
27746;SDS011;15138;51.012;4.692;2022-09-21T08:06:23;29.75;;;22.42;;
27746;SDS011;15138;51.012;4.692;2022-09-21T08:08:52;33.05;;;21.08;;
27746;SDS011;15138;51.012;4.692;2022-09-21T08:11:23;18.92;;;14.30;;
27746;SDS011;15138;51.012;4.692;2022-09-21T08:13:53;23.15;;;15.90;;
27746;SDS011;15138;51.012;4.692;2022-09-21T08:16:22;32.25;;;18.13;;
27746;SDS011;15138;51.012;4.692;2022-09-21T08:18:53;21.33;;;14.45;;
27746;SDS011;15138;51.012;4.692;2022-09-21T08:21:21;24.60;;;16.08;;
27746;SDS011;15138;51.012;4.692;2022-09-21T08:23:49;18.83;;;13.77;;
27746;SDS011;15138;51.012;4.692;2022-09-21T08:26:18;17.08;;;13.60;;
27746;SDS011;15138;51.012;4.692;2022-09-21T08:28:48;22.73;;;13.90;;
27746;SDS011;15138;51.012;4.692;2022-09-21T08:31:19;26.95;;;16.08;;
27746;SDS011;15138;51.012;4.692;2022-09-21T08:33:49;23.75;;;17.30;;
27746;SDS011;15138;51.012;4.692;2022-09-21T08:36:21;25.83;;;17.02;;
27746;SDS011;15138;51.012;4.692;2022-09-21T08:38:49;28.85;;;14.60;;
27746;SDS011;15138;51.012;4.692;2022-09-21T08:41:18;27.00;;;16.27;;
27746;SDS011;15138;51.012;4.692;2022-09-21T08:43:48;24.00;;;16.67;;
27746;SDS011;15138;51.012;4.692;2022-09-21T08:46:20;25.65;;;16.00;;
27746;SDS011;15138;51.012;4.692;2022-09-21T08:48:52;22.20;;;14.43;;
27746;SDS011;15138;51.012;4.692;2022-09-21T08:51:24;19.58;;;12.65;;
27746;SDS011;15138;51.012;4.692;2022-09-21T08:53:57;25.13;;;14.45;;
27746;SDS011;15138;51.012;4.692;2022-09-21T08:56:27;17.23;;;11.00;;
27746;SDS011;15138;51.012;4.692;2022-09-21T08:59:16;19.85;;;10.25;;
27746;SDS011;15138;51.012;4.692;2022-09-21T09:01:49;11.95;;;8.80;;
27746;SDS011;15138;51.012;4.692;2022-09-21T09:04:30;19.23;;;9.82;;
27746;SDS011;15138;51.012;4.692;2022-09-21T09:07:21;21.65;;;9.93;;
27746;SDS011;15138;51.012;4.692;2022-09-21T09:10:05;18.20;;;9.30;;
27746;SDS011;15138;51.012;4.692;2022-09-21T09:12:48;11.73;;;6.57;;
27746;SDS011;15138;51.012;4.692;2022-09-21T09:15:31;17.40;;;8.52;;
27746;SDS011;15138;51.012;4.692;2022-09-21T09:18:10;14.02;;;6.90;;
27746;SDS011;15138;51.012;4.692;2022-09-21T09:20:44;8.38;;;4.28;;
27746;SDS011;15138;51.012;4.692;2022-09-21T09:23:18;11.98;;;6.18;;
27746;SDS011;15138;51.012;4.692;2022-09-21T09:25:49;13.67;;;6.60;;
27746;SDS011;15138;51.012;4.692;2022-09-21T09:28:22;13.63;;;5.63;;
27746;SDS011;15138;51.012;4.692;2022-09-21T09:30:56;11.10;;;5.20;;
27746;SDS011;15138;51.012;4.692;2022-09-21T09:33:28;13.23;;;6.00;;
27746;SDS011;15138;51.012;4.692;2022-09-21T09:36:04;13.25;;;5.22;;
27746;SDS011;15138;51.012;4.692;2022-09-21T09:38:35;14.20;;;6.00;;
27746;SDS011;15138;51.012;4.692;2022-09-21T09:41:10;10.82;;;5.25;;
27746;SDS011;15138;51.012;4.692;2022-09-21T09:43:54;11.90;;;4.00;;
27746;SDS011;15138;51.012;4.692;2022-09-21T09:46:34;11.90;;;3.90;;
27746;SDS011;15138;51.012;4.692;2022-09-21T09:49:15;9.75;;;2.97;;
27746;SDS011;15138;51.012;4.692;2022-09-21T09:51:52;7.20;;;3.25;;
27746;SDS011;15138;51.012;4.692;2022-09-21T09:54:23;9.18;;;3.03;;
27746;SDS011;15138;51.012;4.692;2022-09-21T09:56:53;8.27;;;2.72;;
27746;SDS011;15138;51.012;4.692;2022-09-21T09:59:23;10.68;;;4.60;;
27746;SDS011;15138;51.012;4.692;2022-09-21T10:01:59;12.60;;;3.38;;
27746;SDS011;15138;51.012;4.692;2022-09-21T10:04:29;10.05;;;3.25;;
27746;SDS011;15138;51.012;4.692;2022-09-21T10:07:00;8.50;;;3.25;;
27746;SDS011;15138;51.012;4.692;2022-09-21T10:09:30;9.63;;;3.30;;
27746;SDS011;15138;51.012;4.692;2022-09-21T10:12:00;7.95;;;2.60;;
27746;SDS011;15138;51.012;4.692;2022-09-21T10:14:35;6.93;;;2.00;;
27746;SDS011;15138;51.012;4.692;2022-09-21T10:17:04;9.70;;;2.38;;
27746;SDS011;15138;51.012;4.692;2022-09-21T10:19:34;9.82;;;2.72;;
27746;SDS011;15138;51.012;4.692;2022-09-21T10:22:03;6.10;;;2.00;;
27746;SDS011;15138;51.012;4.692;2022-09-21T10:24:34;5.95;;;1.73;;
27746;SDS011;15138;51.012;4.692;2022-09-21T10:27:06;10.25;;;1.83;;
27746;SDS011;15138;51.012;4.692;2022-09-21T10:29:40;6.55;;;2.20;;
27746;SDS011;15138;51.012;4.692;2022-09-21T10:32:17;7.07;;;2.47;;
27746;SDS011;15138;51.012;4.692;2022-09-21T10:37:43;8.10;;;1.70;;
27746;SDS011;15138;51.012;4.692;2022-09-21T10:40:25;8.68;;;2.03;;
27746;SDS011;15138;51.012;4.692;2022-09-21T10:42:57;7.28;;;1.70;;
27746;SDS011;15138;51.012;4.692;2022-09-21T10:45:27;6.70;;;2.15;;
27746;SDS011;15138;51.012;4.692;2022-09-21T10:47:56;5.47;;;1.83;;
27746;SDS011;15138;51.012;4.692;2022-09-21T10:50:34;3.88;;;1.58;;
27746;SDS011;15138;51.012;4.692;2022-09-21T10:53:10;5.85;;;2.22;;
27746;SDS011;15138;51.012;4.692;2022-09-21T10:55:42;5.38;;;1.98;;
27746;SDS011;15138;51.012;4.692;2022-09-21T10:58:33;9.10;;;1.75;;
27746;SDS011;15138;51.012;4.692;2022-09-21T11:01:09;5.50;;;1.60;;
27746;SDS011;15138;51.012;4.692;2022-09-21T11:03:46;5.88;;;1.50;;
27746;SDS011;15138;51.012;4.692;2022-09-21T11:06:19;2.92;;;1.23;;
27746;SDS011;15138;51.012;4.692;2022-09-21T11:08:52;5.38;;;1.52;;
27746;SDS011;15138;51.012;4.692;2022-09-21T11:11:31;4.65;;;1.50;;
27746;SDS011;15138;51.012;4.692;2022-09-21T11:14:09;4.28;;;1.40;;
27746;SDS011;15138;51.012;4.692;2022-09-21T11:16:44;6.97;;;1.30;;
27746;SDS011;15138;51.012;4.692;2022-09-21T11:19:19;4.80;;;1.20;;
27746;SDS011;15138;51.012;4.692;2022-09-21T11:21:55;2.22;;;1.13;;
27746;SDS011;15138;51.012;4.692;2022-09-21T11:24:30;9.25;;;1.50;;
27746;SDS011;15138;51.012;4.692;2022-09-21T11:27:07;3.72;;;0.98;;
27746;SDS011;15138;51.012;4.692;2022-09-21T11:29:42;5.97;;;1.20;;
27746;SDS011;15138;51.012;4.692;2022-09-21T11:32:27;4.18;;;1.52;;
27746;SDS011;15138;51.012;4.692;2022-09-21T11:35:15;6.38;;;1.38;;
27746;SDS011;15138;51.012;4.692;2022-09-21T11:38:02;6.78;;;1.50;;
27746;SDS011;15138;51.012;4.692;2022-09-21T11:40:36;6.20;;;1.20;;
27746;SDS011;15138;51.012;4.692;2022-09-21T11:43:29;5.07;;;1.10;;
27746;SDS011;15138;51.012;4.692;2022-09-21T11:48:48;5.28;;;1.45;;
27746;SDS011;15138;51.012;4.692;2022-09-21T11:51:29;4.80;;;1.15;;
27746;SDS011;15138;51.012;4.692;2022-09-21T11:57:00;2.33;;;1.05;;
27746;SDS011;15138;51.012;4.692;2022-09-21T11:59:44;5.72;;;1.20;;
27746;SDS011;15138;51.012;4.692;2022-09-21T12:02:30;5.80;;;1.30;;
27746;SDS011;15138;51.012;4.692;2022-09-21T12:05:11;5.28;;;1.30;;
27746;SDS011;15138;51.012;4.692;2022-09-21T12:07:51;6.78;;;1.17;;
27746;SDS011;15138;51.012;4.692;2022-09-21T12:10:36;4.82;;;1.17;;
27746;SDS011;15138;51.012;4.692;2022-09-21T12:13:07;3.50;;;1.27;;
27746;SDS011;15138;51.012;4.692;2022-09-21T12:15:48;4.10;;;0.90;;
27746;SDS011;15138;51.012;4.692;2022-09-21T12:18:23;7.72;;;1.27;;
27746;SDS011;15138;51.012;4.692;2022-09-21T12:20:59;6.30;;;1.17;;
27746;SDS011;15138;51.012;4.692;2022-09-21T12:23:37;3.47;;;1.05;;
27746;SDS011;15138;51.012;4.692;2022-09-21T12:26:08;6.07;;;1.20;;
27746;SDS011;15138;51.012;4.692;2022-09-21T12:28:41;4.82;;;1.27;;
27746;SDS011;15138;51.012;4.692;2022-09-21T12:31:15;4.43;;;1.20;;
27746;SDS011;15138;51.012;4.692;2022-09-21T12:33:47;6.20;;;1.10;;
27746;SDS011;15138;51.012;4.692;2022-09-21T12:36:19;4.40;;;1.20;;
27746;SDS011;15138;51.012;4.692;2022-09-21T12:38:53;3.80;;;1.20;;
27746;SDS011;15138;51.012;4.692;2022-09-21T12:41:27;7.07;;;1.20;;
27746;SDS011;15138;51.012;4.692;2022-09-21T12:44:03;4.43;;;1.05;;
27746;SDS011;15138;51.012;4.692;2022-09-21T12:46:42;5.93;;;1.42;;
27746;SDS011;15138;51.012;4.692;2022-09-21T12:49:18;5.55;;;1.10;;
27746;SDS011;15138;51.012;4.692;2022-09-21T12:51:50;4.95;;;1.48;;
27746;SDS011;15138;51.012;4.692;2022-09-21T12:54:24;7.40;;;1.20;;
27746;SDS011;15138;51.012;4.692;2022-09-21T12:57:05;5.50;;;1.20;;
27746;SDS011;15138;51.012;4.692;2022-09-21T13:00:02;4.05;;;1.08;;
27746;SDS011;15138;51.012;4.692;2022-09-21T13:02:34;4.80;;;1.15;;
27746;SDS011;15138;51.012;4.692;2022-09-21T13:05:14;2.85;;;0.90;;
27746;SDS011;15138;51.012;4.692;2022-09-21T13:07:58;6.10;;;1.20;;
27746;SDS011;15138;51.012;4.692;2022-09-21T13:10:32;2.90;;;1.10;;
27746;SDS011;15138;51.012;4.692;2022-09-21T13:13:06;7.25;;;1.10;;
27746;SDS011;15138;51.012;4.692;2022-09-21T13:15:44;4.50;;;1.00;;
27746;SDS011;15138;51.012;4.692;2022-09-21T13:18:17;4.70;;;1.38;;
27746;SDS011;15138;51.012;4.692;2022-09-21T13:20:48;7.45;;;1.08;;
27746;SDS011;15138;51.012;4.692;2022-09-21T13:23:21;5.68;;;1.23;;
27746;SDS011;15138;51.012;4.692;2022-09-21T13:25:58;5.55;;;1.05;;
27746;SDS011;15138;51.012;4.692;2022-09-21T13:31:42;4.05;;;0.95;;
27746;SDS011;15138;51.012;4.692;2022-09-21T13:34:26;6.15;;;1.20;;
27746;SDS011;15138;51.012;4.692;2022-09-21T13:37:22;5.15;;;1.20;;
27746;SDS011;15138;51.012;4.692;2022-09-21T13:43:20;3.35;;;0.70;;
27746;SDS011;15138;51.012;4.692;2022-09-21T13:45:52;3.22;;;1.00;;
27746;SDS011;15138;51.012;4.692;2022-09-21T13:48:21;7.03;;;1.10;;
27746;SDS011;15138;51.012;4.692;2022-09-21T13:50:56;5.68;;;1.00;;
27746;SDS011;15138;51.012;4.692;2022-09-21T13:53:29;6.78;;;1.33;;
27746;SDS011;15138;51.012;4.692;2022-09-21T13:56:05;5.13;;;1.00;;
27746;SDS011;15138;51.012;4.692;2022-09-21T13:58:43;1.80;;;0.68;;
27746;SDS011;15138;51.012;4.692;2022-09-21T14:01:17;2.92;;;0.80;;
27746;SDS011;15138;51.012;4.692;2022-09-21T14:04:14;4.65;;;1.10;;
27746;SDS011;15138;51.012;4.692;2022-09-21T14:06:50;1.75;;;0.65;;
27746;SDS011;15138;51.012;4.692;2022-09-21T14:09:21;4.00;;;0.98;;
27746;SDS011;15138;51.012;4.692;2022-09-21T14:11:53;4.40;;;1.02;;
27746;SDS011;15138;51.012;4.692;2022-09-21T14:14:26;3.70;;;0.90;;
27746;SDS011;15138;51.012;4.692;2022-09-21T14:16:56;7.22;;;1.20;;
27746;SDS011;15138;51.012;4.692;2022-09-21T14:22:43;6.55;;;1.08;;
27746;SDS011;15138;51.012;4.692;2022-09-21T14:25:21;6.60;;;1.10;;
27746;SDS011;15138;51.012;4.692;2022-09-21T14:28:02;7.30;;;1.10;;
27746;SDS011;15138;51.012;4.692;2022-09-21T14:30:37;5.57;;;1.20;;
27746;SDS011;15138;51.012;4.692;2022-09-21T14:33:11;6.30;;;1.25;;
27746;SDS011;15138;51.012;4.692;2022-09-21T14:35:51;3.42;;;1.00;;
27746;SDS011;15138;51.012;4.692;2022-09-21T14:38:24;4.93;;;1.08;;
27746;SDS011;15138;51.012;4.692;2022-09-21T14:40:58;6.15;;;1.15;;
27746;SDS011;15138;51.012;4.692;2022-09-21T14:43:32;4.73;;;1.27;;
27746;SDS011;15138;51.012;4.692;2022-09-21T14:46:18;4.13;;;0.93;;
27746;SDS011;15138;51.012;4.692;2022-09-21T14:49:03;3.33;;;1.20;;
27746;SDS011;15138;51.012;4.692;2022-09-21T14:51:41;6.43;;;1.30;;
27746;SDS011;15138;51.012;4.692;2022-09-21T14:54:41;7.28;;;1.20;;
27746;SDS011;15138;51.012;4.692;2022-09-21T14:57:17;5.32;;;1.65;;
27746;SDS011;15138;51.012;4.692;2022-09-21T15:02:53;4.10;;;1.08;;
27746;SDS011;15138;51.012;4.692;2022-09-21T15:05:35;5.60;;;1.00;;
27746;SDS011;15138;51.012;4.692;2022-09-21T15:08:10;6.97;;;1.27;;
27746;SDS011;15138;51.012;4.692;2022-09-21T15:11:10;4.57;;;1.05;;
27746;SDS011;15138;51.012;4.692;2022-09-21T15:14:02;4.82;;;1.17;;
27746;SDS011;15138;51.012;4.692;2022-09-21T15:16:42;3.53;;;1.33;;
27746;SDS011;15138;51.012;4.692;2022-09-21T15:19:13;2.80;;;0.98;;
27746;SDS011;15138;51.012;4.692;2022-09-21T15:21:49;4.80;;;1.17;;
27746;SDS011;15138;51.012;4.692;2022-09-21T15:24:20;4.13;;;1.08;;
27746;SDS011;15138;51.012;4.692;2022-09-21T15:26:53;3.40;;;1.13;;
27746;SDS011;15138;51.012;4.692;2022-09-21T15:29:29;8.32;;;1.40;;
27746;SDS011;15138;51.012;4.692;2022-09-21T15:31:59;6.22;;;1.63;;
27746;SDS011;15138;51.012;4.692;2022-09-21T15:34:27;3.15;;;1.00;;
27746;SDS011;15138;51.012;4.692;2022-09-21T15:37:07;4.25;;;1.10;;
27746;SDS011;15138;51.012;4.692;2022-09-21T15:39:42;4.30;;;1.10;;
27746;SDS011;15138;51.012;4.692;2022-09-21T15:42:15;6.28;;;1.10;;